createdAt,value
2022-12-04T00:01:47.887Z,1.80
2022-12-04T00:04:16.096Z,2.10
2022-12-04T00:06:45.575Z,2.40
2022-12-04T00:09:14.290Z,2.50
2022-12-04T00:11:42.563Z,2.70
2022-12-04T00:14:12.087Z,2.80
2022-12-04T00:16:40.395Z,2.80
2022-12-04T00:19:08.724Z,2.90
2022-12-04T00:21:38.296Z,2.90
2022-12-04T00:24:07.534Z,2.90
2022-12-04T00:26:35.859Z,2.90
2022-12-04T00:29:04.230Z,2.90
2022-12-04T00:31:34.391Z,2.90
2022-12-04T00:34:07.770Z,2.80
2022-12-04T00:36:36.441Z,2.80
2022-12-04T00:39:05.607Z,2.80
2022-12-04T00:41:34.625Z,2.70
2022-12-04T00:44:04.130Z,2.70
2022-12-04T00:46:33.753Z,2.80
2022-12-04T00:49:03.107Z,2.80
2022-12-04T00:51:32.008Z,2.80
2022-12-04T00:54:00.233Z,2.80
2022-12-04T00:56:29.965Z,2.80
2022-12-04T00:59:00.130Z,2.80
2022-12-04T01:01:30.494Z,2.80
2022-12-04T01:04:00.444Z,2.80
2022-12-04T01:06:30.856Z,2.70
2022-12-04T01:09:00.860Z,2.30
2022-12-04T01:11:30.489Z,2.50
2022-12-04T01:13:59.740Z,2.60
2022-12-04T01:16:29.477Z,2.60
2022-12-04T01:18:59.097Z,2.10
2022-12-04T01:21:27.356Z,1.80
2022-12-04T01:23:55.782Z,2.20
2022-12-04T01:26:24.049Z,1.80
2022-12-04T01:28:52.409Z,1.70
2022-12-04T01:31:22.301Z,1.10
2022-12-04T01:33:51.442Z,1.20
2022-12-04T01:36:23.413Z,1.50
2022-12-04T01:38:51.996Z,1.70
2022-12-04T01:41:21.949Z,1.50
2022-12-04T01:44:08.423Z,1.70
2022-12-04T01:46:36.641Z,2.00
2022-12-04T01:49:06.171Z,2.10
2022-12-04T01:51:39.744Z,2.00
2022-12-04T01:54:11.142Z,2.10
2022-12-04T01:56:44.818Z,2.20
2022-12-04T01:59:16.704Z,1.70
2022-12-04T02:02:00.507Z,2.00
2022-12-04T02:04:29.068Z,2.20
2022-12-04T02:06:58.610Z,2.00
2022-12-04T02:09:27.337Z,2.20
2022-12-04T02:12:03.046Z,1.30
2022-12-04T02:14:37.676Z,1.10
2022-12-04T02:17:15.115Z,1.30
2022-12-04T02:19:55.938Z,1.40
2022-12-04T02:22:38.424Z,1.50
2022-12-04T02:25:14.087Z,1.50
2022-12-04T02:28:03.974Z,1.80
2022-12-04T02:30:35.933Z,2.00
2022-12-04T02:33:11.903Z,1.10
2022-12-04T02:35:45.626Z,0.90
2022-12-04T02:38:19.611Z,0.80
2022-12-04T02:40:53.986Z,1.00
2022-12-04T02:43:28.473Z,1.00
2022-12-04T02:46:01.440Z,0.70
2022-12-04T02:48:33.546Z,0.50
2022-12-04T02:51:03.311Z,0.40
2022-12-04T02:53:35.520Z,0.40
2022-12-04T02:56:07.795Z,0.40
2022-12-04T02:58:42.196Z,0.40
2022-12-04T03:01:20.371Z,0.40
2022-12-04T03:03:54.047Z,0.40
2022-12-04T03:06:25.344Z,0.50
2022-12-04T03:09:00.451Z,0.80
2022-12-04T03:11:32.309Z,0.60
2022-12-04T03:14:09.097Z,0.80
2022-12-04T03:16:40.824Z,0.90
2022-12-04T03:19:12.891Z,0.90
2022-12-04T03:21:45.219Z,0.70
2022-12-04T03:24:18.914Z,0.70
2022-12-04T03:26:49.839Z,1.00
2022-12-04T03:29:23.641Z,1.30
2022-12-04T03:31:59.246Z,1.40
2022-12-04T03:34:33.746Z,1.50
2022-12-04T03:37:10.470Z,1.30
2022-12-04T03:39:46.419Z,1.10
2022-12-04T03:42:20.956Z,1.10
2022-12-04T03:44:56.282Z,1.30
2022-12-04T03:47:33.123Z,1.60
2022-12-04T03:50:04.288Z,1.80
2022-12-04T03:52:38.147Z,1.20
2022-12-04T03:55:12.298Z,1.40
2022-12-04T03:57:44.876Z,1.10
2022-12-04T04:00:17.529Z,1.10
2022-12-04T04:02:49.517Z,0.90
2022-12-04T04:05:19.232Z,1.20
2022-12-04T04:07:51.059Z,1.00
2022-12-04T04:10:23.802Z,1.00
2022-12-04T04:13:11.077Z,1.20
2022-12-04T04:16:03.290Z,1.50
2022-12-04T04:18:50.791Z,1.80
2022-12-04T04:21:40.778Z,1.80
2022-12-04T04:24:17.985Z,1.60
2022-12-04T04:26:50.318Z,1.40
2022-12-04T04:29:18.466Z,1.10
2022-12-04T04:31:54.301Z,1.50
2022-12-04T04:34:29.896Z,1.70
2022-12-04T04:37:03.509Z,1.80
2022-12-04T04:39:35.352Z,2.00
2022-12-04T04:42:08.161Z,2.20
2022-12-04T04:44:42.289Z,2.20
2022-12-04T04:47:19.868Z,1.80
2022-12-04T04:49:51.892Z,1.50
2022-12-04T04:52:22.774Z,1.70
2022-12-04T04:54:50.894Z,1.70
2022-12-04T04:57:28.389Z,2.00
2022-12-04T04:59:56.822Z,1.80
2022-12-04T05:02:28.374Z,1.90
2022-12-04T05:04:56.806Z,2.10
2022-12-04T05:07:24.967Z,2.10
2022-12-04T05:09:53.062Z,2.10
2022-12-04T05:12:21.416Z,2.30
2022-12-04T05:14:49.738Z,2.40
2022-12-04T05:17:18.230Z,2.40
2022-12-04T05:19:57.730Z,2.50
2022-12-04T05:22:28.621Z,2.40
2022-12-04T05:24:57.048Z,2.00
2022-12-04T05:27:26.917Z,1.50
2022-12-04T05:29:56.164Z,1.60
2022-12-04T05:32:26.563Z,1.40
2022-12-04T05:34:57.198Z,1.50
2022-12-04T05:37:26.339Z,1.90
2022-12-04T05:39:55.009Z,2.10
2022-12-04T05:42:23.285Z,2.30
2022-12-04T05:44:51.504Z,2.40
2022-12-04T05:47:19.566Z,2.50
2022-12-04T05:49:47.814Z,2.50
2022-12-04T05:52:17.339Z,2.60
2022-12-04T05:54:45.473Z,2.70
2022-12-04T05:57:13.651Z,2.70
2022-12-04T05:59:42.002Z,2.70
2022-12-04T06:02:10.140Z,2.80
2022-12-04T06:04:39.094Z,2.80
2022-12-04T06:07:07.270Z,2.80
2022-12-04T06:09:37.389Z,2.60
2022-12-04T06:12:06.224Z,2.70
2022-12-04T06:14:39.305Z,2.80
2022-12-04T06:17:08.608Z,2.70
2022-12-04T06:19:36.797Z,2.70
2022-12-04T06:22:05.046Z,2.80
2022-12-04T06:24:33.213Z,2.80
2022-12-04T06:29:50.863Z,2.60
2022-12-04T06:32:21.803Z,2.60
2022-12-04T06:34:53.105Z,2.40
2022-12-04T06:37:22.282Z,2.60
2022-12-04T06:39:50.482Z,2.70
2022-12-04T06:42:20.124Z,2.70
2022-12-04T06:44:48.364Z,2.10
2022-12-04T06:47:16.498Z,1.90
2022-12-04T06:49:46.017Z,2.00
2022-12-04T06:52:14.141Z,2.20
2022-12-04T06:54:42.405Z,2.50
2022-12-04T06:57:10.465Z,2.60
2022-12-04T06:59:40.276Z,2.70
2022-12-04T07:02:08.700Z,2.60
2022-12-04T07:04:36.779Z,2.70
2022-12-04T07:07:05.047Z,2.80
2022-12-04T07:09:33.179Z,2.90
2022-12-04T07:12:01.513Z,2.90
2022-12-04T07:14:29.607Z,2.90
2022-12-04T07:16:59.630Z,3.00
2022-12-04T07:19:27.922Z,3.00
2022-12-04T07:21:56.353Z,3.00
2022-12-04T07:24:24.533Z,3.00
2022-12-04T07:26:53.760Z,3.00
2022-12-04T07:29:21.909Z,3.00
2022-12-04T07:31:50.117Z,3.00
2022-12-04T07:34:19.814Z,3.00
2022-12-04T07:36:48.002Z,3.00
2022-12-04T07:39:16.116Z,3.00
2022-12-04T07:41:44.455Z,3.00
2022-12-04T07:44:15.434Z,3.10
2022-12-04T07:46:43.610Z,3.10
2022-12-04T07:49:13.681Z,3.10
2022-12-04T07:51:43.501Z,3.10
2022-12-04T07:54:12.006Z,3.10
2022-12-04T07:56:40.150Z,3.10
2022-12-04T07:59:08.214Z,3.10
2022-12-04T08:01:36.585Z,3.10
2022-12-04T08:04:04.832Z,3.10
2022-12-04T08:06:35.024Z,3.10
2022-12-04T08:09:09.792Z,3.20
2022-12-04T08:11:38.454Z,3.20
2022-12-04T08:14:08.763Z,3.20
2022-12-04T08:16:36.967Z,3.20
2022-12-04T08:19:05.596Z,3.30
2022-12-04T08:21:34.564Z,3.30
2022-12-04T08:24:04.192Z,3.20
2022-12-04T08:26:33.974Z,3.20
2022-12-04T08:29:02.669Z,3.20
2022-12-04T08:31:32.914Z,3.10
2022-12-04T08:34:03.226Z,3.20
2022-12-04T08:36:32.234Z,3.20
2022-12-04T08:39:00.429Z,3.30
2022-12-04T08:41:30.141Z,3.30
2022-12-04T08:43:59.603Z,2.80
2022-12-04T08:46:29.397Z,2.50
2022-12-04T08:48:58.257Z,2.70
2022-12-04T08:51:28.221Z,2.90
2022-12-04T08:53:57.234Z,3.00
2022-12-04T08:56:26.559Z,3.00
2022-12-04T08:58:57.128Z,3.10
2022-12-04T09:01:26.684Z,3.10
2022-12-04T09:03:55.222Z,3.00
2022-12-04T09:06:23.761Z,2.80
2022-12-04T09:08:54.282Z,2.50
2022-12-04T09:11:25.377Z,2.30
2022-12-04T09:13:55.996Z,2.40
2022-12-04T09:16:26.441Z,2.30
2022-12-04T09:18:55.285Z,2.40
2022-12-04T09:21:24.937Z,2.50
2022-12-04T09:23:53.362Z,2.50
2022-12-04T09:26:24.518Z,2.70
2022-12-04T09:28:53.995Z,2.80
2022-12-04T09:31:24.653Z,2.90
2022-12-04T09:33:53.249Z,3.00
2022-12-04T09:36:22.250Z,2.80
2022-12-04T09:38:51.590Z,2.80
2022-12-04T09:41:56.693Z,3.00
2022-12-04T09:44:28.879Z,2.80
2022-12-04T09:47:03.354Z,2.80
2022-12-04T09:49:37.300Z,2.70
2022-12-04T09:52:10.849Z,2.70
2022-12-04T09:54:42.128Z,2.70
2022-12-04T09:57:17.124Z,2.80
2022-12-04T09:59:46.871Z,2.80
2022-12-04T10:02:35.304Z,2.90
2022-12-04T10:05:04.092Z,3.00
2022-12-04T10:07:37.946Z,3.00
2022-12-04T10:10:09.568Z,2.80
2022-12-04T10:12:48.574Z,2.90
2022-12-04T10:15:30.983Z,2.80
2022-12-04T10:18:21.240Z,2.90
2022-12-04T10:21:06.495Z,2.90
2022-12-04T10:23:45.109Z,2.80
2022-12-04T10:26:17.591Z,2.80
2022-12-04T10:28:55.259Z,2.80
2022-12-04T10:31:25.548Z,2.80
2022-12-04T10:33:57.737Z,2.70
2022-12-04T10:36:32.801Z,2.70
2022-12-04T10:39:04.272Z,2.80
2022-12-04T10:41:41.659Z,2.80
2022-12-04T10:44:14.305Z,2.80
2022-12-04T10:46:46.011Z,2.80
2022-12-04T10:49:20.330Z,2.80
2022-12-04T10:51:49.104Z,2.80
2022-12-04T10:54:22.796Z,2.80
2022-12-04T10:56:56.083Z,2.90
2022-12-04T10:59:25.593Z,2.80
2022-12-04T11:02:04.765Z,2.90
2022-12-04T11:04:37.092Z,2.80
2022-12-04T11:07:08.001Z,2.80
2022-12-04T11:09:36.944Z,2.80
2022-12-04T11:12:16.923Z,2.70
2022-12-04T11:14:47.130Z,2.90
2022-12-04T11:17:19.730Z,2.90
2022-12-04T11:19:59.495Z,3.10
2022-12-04T11:22:27.666Z,3.40
2022-12-04T11:24:58.385Z,3.40
2022-12-04T11:27:32.716Z,3.10
2022-12-04T11:30:04.650Z,3.20
2022-12-04T11:32:34.926Z,3.20
2022-12-04T11:35:13.947Z,3.40
2022-12-04T11:37:45.477Z,3.70
2022-12-04T11:40:19.561Z,3.80
2022-12-04T11:43:00.549Z,3.80
2022-12-04T11:45:28.851Z,3.90
2022-12-04T11:47:58.632Z,4.00
2022-12-04T11:50:36.898Z,4.00
2022-12-04T11:53:15.649Z,4.10
2022-12-04T11:55:58.060Z,4.00
2022-12-04T11:58:44.897Z,3.80
2022-12-04T12:01:35.523Z,4.00
2022-12-04T12:04:29.712Z,3.90
2022-12-04T12:07:13.903Z,4.00
2022-12-04T12:09:49.717Z,4.10
2022-12-04T12:12:24.623Z,4.20
2022-12-04T12:15:03.240Z,4.20
2022-12-04T12:17:40.795Z,4.30
2022-12-04T12:20:17.649Z,4.30
2022-12-04T12:23:03.342Z,4.40
2022-12-04T12:25:38.618Z,4.40
2022-12-04T12:28:29.473Z,4.40
2022-12-04T12:31:10.658Z,4.50
2022-12-04T12:33:44.627Z,4.30
2022-12-04T12:36:14.196Z,4.20
2022-12-04T12:38:49.751Z,4.30
2022-12-04T12:41:20.773Z,4.30
2022-12-04T12:43:59.935Z,4.30
2022-12-04T12:46:33.039Z,4.10
2022-12-04T12:49:04.314Z,4.00
2022-12-04T12:51:38.292Z,4.10
2022-12-04T12:54:16.324Z,4.20
2022-12-04T12:56:50.066Z,4.40
2022-12-04T12:59:21.939Z,4.40
2022-12-04T13:02:00.194Z,4.50
2022-12-04T13:04:36.131Z,4.30
2022-12-04T13:07:21.924Z,4.30
2022-12-04T13:09:57.838Z,4.00
2022-12-04T13:12:27.389Z,4.10
2022-12-04T13:14:55.575Z,4.10
2022-12-04T13:17:31.489Z,4.20
2022-12-04T13:20:08.265Z,4.10
2022-12-04T13:22:50.206Z,4.00
2022-12-04T13:25:37.156Z,3.80
2022-12-04T13:28:17.357Z,4.10
2022-12-04T13:30:51.354Z,4.40
2022-12-04T13:33:51.501Z,4.50
2022-12-04T13:36:48.712Z,4.60
2022-12-04T13:39:56.683Z,4.80
2022-12-04T13:42:29.939Z,4.70
2022-12-04T13:45:00.834Z,4.90
2022-12-04T13:47:31.723Z,4.80
2022-12-04T13:50:27.587Z,4.80
2022-12-04T13:52:56.567Z,4.80
2022-12-04T13:55:27.076Z,4.80
2022-12-04T13:57:58.757Z,4.80
2022-12-04T14:00:30.782Z,4.70
2022-12-04T14:03:02.274Z,4.70
2022-12-04T14:05:34.712Z,4.50
2022-12-04T14:08:07.818Z,4.70
2022-12-04T14:10:39.586Z,4.80
2022-12-04T14:13:20.340Z,4.70
2022-12-04T14:15:49.013Z,4.80
2022-12-04T14:18:27.151Z,4.70
2022-12-04T14:21:01.134Z,4.80
2022-12-04T14:23:37.750Z,4.80
2022-12-04T14:26:06.457Z,4.90
2022-12-04T14:28:44.479Z,4.90
2022-12-04T14:31:24.698Z,4.60
2022-12-04T14:33:58.222Z,4.70
2022-12-04T14:36:29.181Z,4.80
2022-12-04T14:39:08.773Z,4.80
2022-12-04T14:41:36.953Z,4.80
2022-12-04T14:44:07.827Z,4.90
2022-12-04T14:46:42.212Z,4.90
2022-12-04T14:49:25.004Z,4.80
2022-12-04T14:52:02.296Z,4.90
2022-12-04T14:54:39.938Z,4.60
2022-12-04T14:57:25.219Z,4.50
2022-12-04T14:59:56.154Z,4.60
2022-12-04T15:02:34.300Z,4.70
2022-12-04T15:05:04.465Z,4.80
2022-12-04T15:07:34.326Z,4.70
2022-12-04T15:10:32.381Z,4.50
2022-12-04T15:13:00.539Z,4.40
2022-12-04T15:15:31.915Z,4.50
2022-12-04T15:18:02.156Z,4.30
2022-12-04T15:20:38.679Z,4.00
2022-12-04T15:23:07.400Z,3.70
2022-12-04T15:25:43.191Z,3.60
2022-12-04T15:28:16.932Z,3.50
2022-12-04T15:30:47.762Z,3.40
2022-12-04T15:33:21.704Z,3.40
2022-12-04T15:35:55.028Z,3.40
2022-12-04T15:38:23.819Z,3.30
2022-12-04T15:40:54.910Z,3.20
2022-12-04T15:43:31.677Z,3.30
2022-12-04T15:46:01.609Z,3.40
2022-12-04T15:48:31.392Z,3.40
2022-12-04T15:51:02.351Z,3.70
2022-12-04T15:53:33.178Z,3.60
2022-12-04T15:56:05.590Z,3.40
2022-12-04T15:58:37.498Z,3.40
2022-12-04T16:01:09.785Z,3.70
2022-12-04T16:03:46.625Z,3.80
2022-12-04T16:06:20.587Z,4.10
2022-12-04T16:08:51.142Z,4.30
2022-12-04T16:11:41.906Z,4.30
2022-12-04T16:14:17.960Z,4.40
2022-12-04T16:16:49.766Z,4.50
2022-12-04T16:19:25.820Z,4.60
2022-12-04T16:21:54.116Z,4.60
2022-12-04T16:24:22.981Z,4.60
2022-12-04T16:26:51.991Z,4.60
2022-12-04T16:29:20.332Z,4.60
2022-12-04T16:31:50.555Z,4.60
2022-12-04T16:34:19.195Z,4.70
2022-12-04T16:36:47.663Z,4.70
2022-12-04T16:39:15.701Z,4.70
2022-12-04T16:41:43.793Z,4.70
2022-12-04T16:44:16.589Z,4.50
2022-12-04T16:46:45.405Z,4.60
2022-12-04T16:49:16.406Z,4.60
2022-12-04T16:51:49.553Z,4.70
2022-12-04T16:54:18.050Z,4.60
2022-12-04T16:56:46.126Z,4.30
2022-12-04T16:59:14.369Z,3.80
2022-12-04T17:01:46.332Z,4.10
2022-12-04T17:04:18.075Z,4.00
2022-12-04T17:06:47.011Z,4.10
2022-12-04T17:09:16.415Z,4.10
2022-12-04T17:11:44.974Z,4.10
2022-12-04T17:14:13.399Z,4.30
2022-12-04T17:16:43.642Z,4.40
2022-12-04T17:19:13.156Z,4.50
2022-12-04T17:21:42.814Z,4.50
2022-12-04T17:24:11.430Z,4.60
2022-12-04T17:26:39.570Z,4.60
2022-12-04T17:29:07.759Z,4.70
2022-12-04T17:31:35.959Z,4.70
2022-12-04T17:34:04.115Z,4.70
2022-12-04T17:36:32.242Z,4.80
2022-12-04T17:39:02.712Z,4.80
2022-12-04T17:41:31.011Z,4.70
2022-12-04T17:44:01.016Z,4.70
2022-12-04T17:46:29.393Z,4.70
2022-12-04T17:49:00.522Z,4.80
2022-12-04T17:51:30.823Z,4.70
2022-12-04T17:53:59.472Z,4.80
2022-12-04T17:56:28.971Z,4.80
2022-12-04T17:58:57.275Z,4.80
2022-12-04T18:01:27.654Z,4.80
2022-12-04T18:03:58.103Z,4.80
2022-12-04T18:06:27.729Z,4.90
2022-12-04T18:08:56.323Z,4.80
2022-12-04T18:11:28.383Z,4.80
2022-12-04T18:13:58.130Z,4.90
2022-12-04T18:16:27.537Z,4.90
2022-12-04T18:18:56.342Z,4.80
2022-12-04T18:21:24.999Z,4.60
2022-12-04T18:23:53.609Z,4.70
2022-12-04T18:26:23.902Z,4.80
2022-12-04T18:28:55.329Z,4.80
2022-12-04T18:31:23.507Z,4.80
2022-12-04T18:33:51.729Z,4.80
2022-12-04T18:36:21.673Z,4.90
2022-12-04T18:38:55.386Z,4.90
2022-12-04T18:41:24.299Z,4.90
2022-12-04T18:43:55.223Z,4.90
2022-12-04T18:46:24.280Z,4.90
2022-12-04T18:48:54.982Z,4.90
2022-12-04T18:51:26.792Z,4.90
2022-12-04T18:53:57.902Z,4.90
2022-12-04T18:56:26.032Z,4.90
2022-12-04T18:59:00.061Z,4.80
2022-12-04T19:01:31.199Z,4.80
2022-12-04T19:04:01.292Z,4.80
2022-12-04T19:06:30.726Z,4.80
2022-12-04T19:09:01.566Z,4.80
2022-12-04T19:11:29.842Z,4.90
2022-12-04T19:14:01.074Z,4.90
2022-12-04T19:16:29.696Z,4.90
2022-12-04T19:18:58.597Z,4.90
2022-12-04T19:21:27.002Z,4.90
2022-12-04T19:23:59.004Z,4.80
2022-12-04T19:26:27.547Z,4.80
2022-12-04T19:28:56.621Z,4.80
2022-12-04T19:31:27.936Z,4.70
2022-12-04T19:33:57.898Z,4.80
2022-12-04T19:36:27.152Z,4.80
2022-12-04T19:38:55.560Z,4.60
2022-12-04T19:41:25.845Z,4.70
2022-12-04T19:43:57.206Z,4.80
2022-12-04T19:46:30.066Z,4.70
2022-12-04T19:49:01.794Z,4.80
2022-12-04T19:51:32.142Z,4.90
2022-12-04T19:54:00.880Z,4.80
2022-12-04T19:56:31.257Z,4.80
2022-12-04T19:59:01.394Z,4.80
2022-12-04T20:01:32.930Z,4.50
2022-12-04T20:04:03.602Z,4.60
2022-12-04T20:06:35.616Z,4.70
2022-12-04T20:09:06.176Z,4.80
2022-12-04T20:11:34.395Z,4.80
2022-12-04T20:14:03.480Z,4.90
2022-12-04T20:16:34.133Z,4.90
2022-12-04T20:19:03.792Z,4.90
2022-12-04T20:21:32.520Z,4.80
2022-12-04T20:24:04.161Z,4.80
2022-12-04T20:26:33.797Z,4.90
2022-12-04T20:29:03.737Z,4.90
2022-12-04T20:31:35.179Z,4.90
2022-12-04T20:34:05.748Z,4.90
2022-12-04T20:36:38.241Z,4.60
2022-12-04T20:39:07.373Z,4.40
2022-12-04T20:41:36.025Z,4.50
2022-12-04T20:44:06.496Z,4.70
2022-12-04T20:46:37.831Z,4.80
2022-12-04T20:49:10.049Z,4.80
2022-12-04T20:51:40.665Z,4.70
2022-12-04T20:54:11.322Z,4.60
2022-12-04T20:56:39.637Z,4.30
2022-12-04T20:59:09.618Z,4.20
2022-12-04T21:01:39.272Z,4.50
2022-12-04T21:04:07.891Z,4.60
2022-12-04T21:06:38.487Z,4.70
2022-12-04T21:09:09.598Z,4.80
2022-12-04T21:11:39.692Z,4.90
2022-12-04T21:14:29.945Z,4.80
2022-12-04T21:16:59.829Z,4.90
2022-12-04T21:19:28.378Z,4.90
2022-12-04T21:21:56.890Z,4.90
2022-12-04T21:24:27.904Z,4.90
2022-12-04T21:26:56.561Z,4.90
2022-12-04T21:29:24.654Z,5.00
2022-12-04T21:31:52.774Z,4.90
2022-12-04T21:34:22.487Z,4.90
2022-12-04T21:36:51.314Z,4.90
2022-12-04T21:39:19.769Z,4.90
2022-12-04T21:42:05.241Z,4.90
2022-12-04T21:44:33.636Z,4.90
2022-12-04T21:47:02.081Z,4.90
2022-12-04T21:49:31.685Z,4.80
2022-12-04T21:51:59.925Z,4.80
2022-12-04T21:54:29.303Z,4.80
2022-12-04T21:56:58.106Z,4.80
2022-12-04T21:59:27.090Z,4.70
2022-12-04T22:01:55.473Z,4.70
2022-12-04T22:04:23.704Z,4.70
2022-12-04T22:06:53.585Z,4.70
2022-12-04T22:09:21.774Z,4.70
2022-12-04T22:11:50.034Z,4.70
2022-12-04T22:14:18.239Z,4.70
2022-12-04T22:16:46.456Z,4.60
2022-12-04T22:19:14.716Z,4.60
2022-12-04T22:21:43.073Z,4.60
2022-12-04T22:24:12.825Z,4.60
2022-12-04T22:26:40.932Z,4.60
2022-12-04T22:29:34.304Z,4.50
2022-12-04T22:31:57.201Z,4.60
2022-12-04T22:34:25.614Z,4.60
2022-12-04T22:36:53.785Z,4.60
2022-12-04T22:39:23.280Z,4.60
2022-12-04T22:41:51.434Z,4.50
2022-12-04T22:44:19.735Z,4.50
2022-12-04T22:46:47.928Z,4.60
2022-12-04T22:49:16.741Z,4.60
2022-12-04T22:51:44.836Z,4.60
2022-12-04T22:54:14.935Z,4.60
2022-12-04T22:56:44.674Z,4.60
2022-12-04T22:59:12.910Z,4.60
2022-12-04T23:01:41.411Z,4.60
2022-12-04T23:04:10.479Z,4.60
2022-12-04T23:06:38.977Z,4.60
2022-12-04T23:09:09.930Z,4.60
2022-12-04T23:11:38.487Z,4.50
2022-12-04T23:14:09.835Z,4.60
2022-12-04T23:16:39.715Z,4.50
2022-12-04T23:19:11.749Z,4.40
2022-12-04T23:21:40.838Z,4.50
2022-12-04T23:24:09.582Z,4.40
2022-12-04T23:26:39.633Z,4.30
2022-12-04T23:29:29.772Z,4.40
2022-12-04T23:31:57.404Z,4.30
2022-12-04T23:34:25.712Z,4.40
2022-12-04T23:36:53.855Z,4.40
2022-12-04T23:39:21.999Z,4.30
2022-12-04T23:41:50.184Z,4.40
2022-12-04T23:44:20.164Z,4.30
2022-12-04T23:46:48.530Z,4.30
2022-12-04T23:49:16.706Z,4.30
2022-12-04T23:51:44.838Z,4.30
2022-12-04T23:54:13.078Z,4.30
2022-12-04T23:56:41.294Z,4.20
2022-12-04T23:59:09.420Z,4.30
